Relevés horaires Koksijde (Belgique)


Relevés horaires à Koksijde - Mercredi 17 Févr. 2016
Heure UTC1 Température [°C] Vent [km/h] Hum. [%] Pres.4 [hPa] Visi. [Km] Nébu. [octa] Préc.5 [mm] Cond.
2m. Res. Ros. Dir.2 Vit. Moy. Raf.3
23:00 -0.2 -3.4 -1.7 S 9.3 9.3 11.1 90 1012.8(-1.2/3h) 7 7/8 -- --
22:00 -0.1 -2.7 -2.0 S 7.4 9.3 11.1 87 1013.3(-1.0/3h) 8 6/8 -- --
21:00 0.0 -3.1 -1.9 S 9.3 0.0 0.0 87 1013.8(-1.0/3h) 10 5/8 -- --
20:00 0.6 -1.8 -2.5 S 7.4 7.4 11.1 80 1014.2(-0.8/3h) 15 5/8 -- --
19:00 1.1 -1.3 -2.3 S 7.4 7.4 9.3 78 1014.5(-0.8/3h) 13 5/8 -- --
18:00 0.8 -0.9 -2.2 S 5.6 9.3 13.0 80 1015(-1.1/3h) 14 6/8 0/0h
--
17:00 1.8 1.8 -2.3 SSO 3.7 9.3 11.1 74 1015(-2.1/3h) 17 4/8 -- --
16:00 3.5 1 -3.4 SSO 9.3 9.3 11.1 61 1015.2(-3.0/3h) 20 3/8 -- --
15:00 4.3 2.5 -3.1 S 7.4 9.3 13.0 59 1016.2(-3.1/3h) 17 3/8 -- --
14:00 3.9 2 -4.0 S 7.4 9.3 13.0 56 1017.1(-3.0/3h) 17 3/8 -- --
13:00 4.1 2.2 -3.7 S 7.4 9.3 11.1 57 1018.3(-3.1/3h) 20 3/8 -- --
12:00 3.5 1 -4.1 SSO 9.3 9.3 13.0 57 1019.2(-3.2/3h) 20 3/8 0/0h
--
11:00 2.5 1 -2.5 S 5.6 7.4 11.1 69 1020.2(-3.7/3h) 15 3/8 -- --
10:00 0.5 -1.3 -2.2 S 5.6 5.6 9.3 82 1021.5(-3.0/3h) 10 3/8 -- --
09:00 -0.7 -0.7 -2.7 S 3.7 5.6 7.4 86 1022.7(-2.5/3h) 9 4/8 -- --
08:00 -1.7 -1.7 -3.5 S 3.7 5.6 5.6 87 1024(-2.1/3h) 9 4/8 -- --
07:00 -2.6 -4.8 -4.2 SSE 5.6 5.6 7.4 89 1024.5(-2.1/3h) 7 3/8 -- --
06:00 -2.7 -2.7 -4.3 SSE 3.7 5.6 7.4 89 1025.2(-2.2/3h) 10 3/8 0/0h
--
05:00 -2.4 -2.4 -4.1 NNO 1.9 3.7 5.6 88 1026.2(-2.5/3h) 10 3/8 -- --
04:00 -2.7 -2.7 -4.3 SE 3.7 3.7 5.6 89 1026.7(-3.0/3h) 9 3/8 -- --
03:00 -2.9 -2.9 -4.5 NNO 1.9 3.7 5.6 89 1027.5(-2.8/3h) 9 3/8 -- --
02:00 -2.5 -2.5 -4.4 NNO 1.9 1.9 3.7 87 1028.7(-2.4/3h) 9 3/8 -- --
01:00 -1.7 -1.7 -4.3 NNO 1.9 1.9 3.7 82 1029.7(-2.6/3h) 12 3/8 -- --
00:00 -0.8 -0.8 -4.3 NNO 1.9 7.4 7.4 77 1030.4(-3.1/3h) 12 4/8 0/0h
--

1 Coordinated Universal Time. Actuellement il est 11:00 locale et 09:00 UTC.

2 Le vent souffle depuis la direction indiquée vers la direction oposée.

3 Les rafales max. sont disponible 40 min après l'heure du relevé.

4 Pour les stations d'altitude (plus de 600m) le géopotentiel du niveau le plus proche de la pression obligatoire est indiqué.

5 Les stations disposant d'un diffuseur peuvent indiquer "trace". Cela signifie que des précipitations ont touchés le sol mais que la quantité est inférieure à 0.1 mm.

Récapitulatif de la journée
Température [°C] Vent [km/h] Ensoleillement4 [h] Precipitations totale5 [mm] Pression [Hpa]
Min1 Max.2 Moy.3 Max. Min Max.
-3.1 4.4 6.5 13.0 0 h 0 min 0 1012.8 1030.4

1 Température minimale relevée entre 18:00 UTC la veille et 18:00 UTC le jour donné.

2 Température maximale relevée entre 06:00 UTC le jour donné et 06:00 UTC le lendemain.

3 Vent moyen de la journée basé sur les relevés horaires.

4 Ensoleillement en heures relevé entre 06:00 UTC la veille et 06:00 UTC le jour donné.

5 Précipitations totales tombées entre 06:00 UTC la jour donné et 06:00 UTC le lendemain.

Graphiques horaires